Terminal Aerodrome Forecast
Issued by NWS

Home | Current Version | Previous Version | Graphics & Text | Print | Product List | Glossary On
Versions: 1 2 3 4 5 6 7 8 9 10 11 12 13 14 15
263
FTUS43 KABR 192325
TAFATY
TAF
KATY 192325Z 2000/2024 18009KT P6SM SKC
     FM200200 18010KT P6SM SKC WS020/20040KT
     FM201200 17012KT P6SM SKC
     FM201500 18019G27KT P6SM FEW250=

USA.gov is the U.S. government's official web portal to all federal, state and local government web resources and services.